Solberg-Hunterdon (N51)
Readington, NJ
Field Elevation: 195
Lat: 40°34.98N  Long: 74°44.19W
CTAF/Unicom Freq: 122.8000
   
     For Weather-by-Phone, call 908 534 4979
Weather Advisories
2019-11-17   20:35 Z
Altimeter 30.19" Hg
Wind 050° @ 10 KT
Gusts 14 KT
Visibility 10 SM
Ceiling OVC030
Temperature 4° C (39° F)
Dewpoint -3° C (27° F)
Relative Humidity 58%
Density Altitude --
Condensation Altitude 3,800 feet
Wind Chill: 0° C (32° F)
Wind and Runways
Indicated Runway = 04
Headwind = 10 kt
Crosswind = 2 kt
History
 
 
 
More Info
All DigiWx sites map
NOAA Forecast
 
Airport IQ 5010
(4N1) Greenwood Lake, NJ
(N40) Sky Manor, NJ
 
about DigiWx
 
FAA Disclaimer: The data displayed is for advisory purposes only and is not to be used for flight planning or operations. For official data, please call 908 534 4979 to hear the current automated AWOS voice message.
  METAR N51 172035Z AUTO 05010G14KT 10 SM OVC030 04/M03 A3019